Terminal Aerodrome Forecast
Issued by NWS

Home | Current Version | Previous Version | Text Only | Print | Product List | Glossary On
Versions: 1 2 3 4 5 6 7 8 9 10 11 12 13 14 15 16 17 18 19 20 21 22 23 24 25
000
FTUS43 KDMX 120837 AAA
TAFOTM
TAF AMD
KOTM 120837Z 1209/1306 18005KT 5SM BR SCT050 BKN150
     FM121000 19005KT 4SM BR VCTS BKN035CB BKN060
      TEMPO 1211/1213 2SM TSRA BR SCT008CB BKN035
     FM121300 22007KT P6SM SCT040 OVC100=

USA.gov is the U.S. government's official web portal to all federal, state and local government web resources and services.